Terminal Aerodrome Forecast
Issued by NWS

Home | Current Version | Previous Version | Text Only | Print | Product List | Glossary On
Versions: 1 2 3 4 5 6 7 8 9 10 11 12 13 14 15 16 17 18 19 20
000
FTUS46 KLOX 102019 AAA
TAFLGB
TAF AMD
KLGB 102019Z 1020/1118 19005KT 5SM BR SCT015 BKN020
     FM110000 29008KT 6SM HZ OVC020
     FM110400 VRB03KT 5SM BR SCT006 OVC012
     FM111400 VRB03KT 4SM BR VCSH SCT008 OVC015=

USA.gov is the U.S. government's official web portal to all federal, state and local government web resources and services.